Time;durP1;ratioP1;P1;durP2;ratioP2;P2;SDS_P1;SDS_P2;PMS_P1;PMS_P2;Temp;Humidity;BMP_temperature;BMP_pressure;BME280_temperature;BME280_humidity;BME280_pressure;Samples;Min_cycle;Max_cycle;Signal;HPM_P1;HPM_P2
2024/01/05 00:01:50;;;;;;;;;20.00;15.25;;;;;7.30;100.00;99823.19;4947845;28;11279;-71
2024/01/05 00:04:16;;;;;;;;;20.50;18.25;;;;;7.33;100.00;99830.00;4954967;28;11153;-65
2024/01/05 00:06:43;;;;;;;;;17.25;15.75;;;;;7.30;100.00;99827.72;4959935;28;11290;-71
2024/01/05 00:09:10;;;;;;;;;20.00;18.25;;;;;7.24;100.00;99818.63;4948559;28;11053;-68
2024/01/05 00:11:37;;;;;;;;;24.50;18.75;;;;;7.24;100.00;99825.84;4952397;28;11333;-67
2024/01/05 00:14:03;;;;;;;;;12.50;12.25;;;;;7.31;100.00;99821.34;4952615;28;11213;-66
2024/01/05 00:16:30;;;;;;;;;15.00;13.00;;;;;7.37;100.00;99817.88;4952591;28;11206;-67
2024/01/05 00:18:57;;;;;;;;;16.75;16.50;;;;;7.34;100.00;99807.56;4948505;28;11172;-67
2024/01/05 00:21:26;;;;;;;;;21.75;17.00;;;;;7.31;100.00;99800.75;4950725;28;11909;-67
2024/01/05 00:23:54;;;;;;;;;16.50;16.50;;;;;7.32;100.00;99798.91;4952523;28;11548;-69
2024/01/05 00:26:21;;;;;;;;;17.50;17.00;;;;;7.25;100.00;99804.25;4951931;28;10983;-68
2024/01/05 00:28:50;;;;;;;;;14.50;13.75;;;;;7.28;100.00;99795.78;4950084;28;11186;-66
2024/01/05 00:31:17;;;;;;;;;17.75;14.00;;;;;7.34;100.00;99789.66;4958680;28;11179;-67
2024/01/05 00:33:44;;;;;;;;;19.50;14.00;;;;;7.37;100.00;99786.59;4964734;28;11084;-66
2024/01/05 00:36:12;;;;;;;;;15.00;13.75;;;;;7.43;100.00;99779.59;4938758;28;11165;-66
2024/01/05 00:38:41;;;;;;;;;16.25;14.25;;;;;7.43;100.00;99767.03;4946167;28;11167;-68
2024/01/05 00:41:07;;;;;;;;;15.50;13.75;;;;;7.48;100.00;99773.63;4950472;28;11765;-68
2024/01/05 00:43:34;;;;;;;;;14.00;14.00;;;;;7.41;100.00;99768.25;4957249;28;11033;-67
2024/01/05 00:46:00;;;;;;;;;19.50;15.75;;;;;7.41;100.00;99752.19;4963634;28;11115;-67
2024/01/05 00:48:27;;;;;;;;;14.00;14.00;;;;;7.47;100.00;99753.25;4956803;28;11027;-67
2024/01/05 00:50:54;;;;;;;;;15.25;13.75;;;;;7.41;100.00;99750.38;4965833;28;11714;-67
2024/01/05 00:53:20;;;;;;;;;13.00;10.50;;;;;7.49;100.00;99756.53;4948685;28;10979;-67
2024/01/05 00:55:47;;;;;;;;;13.50;10.00;;;;;7.55;100.00;99750.41;4966320;28;10916;-67
2024/01/05 00:58:14;;;;;;;;;13.25;11.50;;;;;7.46;100.00;99754.28;4965978;28;10899;-69
2024/01/05 01:00:40;;;;;;;;;14.50;13.75;;;;;7.53;100.00;99739.03;4950225;28;11011;-67
2024/01/05 01:03:07;;;;;;;;;9.50;9.00;;;;;7.58;100.00;99741.97;4965873;28;11177;-66
2024/01/05 01:05:34;;;;;;;;;13.50;11.00;;;;;7.57;100.00;99741.13;4957628;28;10978;-70
2024/01/05 01:08:00;;;;;;;;;12.50;11.25;;;;;7.58;100.00;99729.41;4961366;28;10839;-68
2024/01/05 01:10:27;;;;;;;;;12.00;11.00;;;;;7.57;100.00;99721.53;4966371;28;11616;-67
2024/01/05 01:12:53;;;;;;;;;13.00;10.00;;;;;7.60;100.00;99718.47;4944096;28;10901;-67
2024/01/05 01:15:20;;;;;;;;;10.00;10.00;;;;;7.63;100.00;99713.53;4950986;28;10931;-70
2024/01/05 01:17:47;;;;;;;;;10.00;7.75;;;;;7.66;100.00;99717.69;4966557;28;11725;-67
2024/01/05 01:20:14;;;;;;;;;14.75;12.50;;;;;7.66;100.00;99704.28;4959315;28;10888;-67
2024/01/05 01:22:40;;;;;;;;;10.75;8.50;;;;;7.71;100.00;99709.84;4949086;28;10908;-70
2024/01/05 01:25:07;;;;;;;;;13.75;10.00;;;;;7.71;100.00;99717.88;4946149;29;10916;-67
2024/01/05 01:27:34;;;;;;;;;10.00;10.00;;;;;7.69;100.00;99706.53;4959166;28;11006;-68
2024/01/05 01:30:01;;;;;;;;;7.25;6.00;;;;;7.72;100.00;99697.28;4956373;28;10922;-70
2024/01/05 01:32:28;;;;;;;;;10.00;9.25;;;;;7.75;100.00;99702.25;4951185;28;10785;-68
2024/01/05 01:34:55;;;;;;;;;12.50;9.25;;;;;7.71;100.00;99691.09;4945051;28;10935;-69
2024/01/05 01:37:21;;;;;;;;;10.00;9.00;;;;;7.75;100.00;99692.34;4964263;28;10959;-67
2024/01/05 01:39:48;;;;;;;;;13.00;10.75;;;;;7.70;100.00;99686.78;4951763;29;10862;-68
2024/01/05 01:42:14;;;;;;;;;17.50;10.25;;;;;7.73;100.00;99685.53;4951297;29;10934;-67
2024/01/05 01:44:41;;;;;;;;;12.50;10.00;;;;;7.68;100.00;99686.97;4947418;29;10976;-68
2024/01/05 01:47:08;;;;;;;;;11.00;9.75;;;;;7.72;100.00;99681.22;4946701;28;11652;-70
2024/01/05 01:49:35;;;;;;;;;16.00;13.00;;;;;7.73;100.00;99680.16;4961252;23;11038;-67
2024/01/05 01:52:02;;;;;;;;;12.75;11.75;;;;;7.75;100.00;99670.91;4946404;28;11018;-69
2024/01/05 01:54:32;;;;;;;;;9.75;7.75;;;;;7.76;100.00;99669.06;4941946;29;11646;-68
2024/01/05 01:57:02;;;;;;;;;11.75;8.25;;;;;7.78;100.00;99661.63;4950150;29;10860;-69
2024/01/05 01:59:29;;;;;;;;;17.25;10.00;;;;;7.78;100.00;99661.63;4949091;29;11525;-69
2024/01/05 02:01:57;;;;;;;;;10.50;9.00;;;;;7.79;100.00;99647.22;4958583;28;10732;-67
2024/01/05 02:04:25;;;;;;;;;12.75;7.00;;;;;7.78;100.00;99649.09;4952345;28;10848;-71
2024/01/05 02:06:52;;;;;;;;;12.75;10.00;;;;;7.79;100.00;99636.50;4949490;29;10707;-68
2024/01/05 02:09:19;;;;;;;;;8.50;6.25;;;;;7.77;100.00;99635.88;4951352;28;10984;-68
2024/01/05 02:11:46;;;;;;;;;7.00;6.00;;;;;7.76;100.00;99636.91;4950200;28;10759;-67
2024/01/05 02:14:12;;;;;;;;;9.00;7.00;;;;;7.75;100.00;99628.06;4952056;28;10796;-70
2024/01/05 02:16:41;;;;;;;;;12.75;10.00;;;;;7.75;100.00;99621.88;4955947;28;10868;-68
2024/01/05 02:19:08;;;;;;;;;6.50;6.00;;;;;7.79;100.00;99626.63;4953713;28;10809;-70
2024/01/05 02:21:40;;;;;;;;;6.75;6.00;;;;;7.80;100.00;99622.06;4954628;28;10676;-68
2024/01/05 02:24:07;;;;;;;;;8.50;8.50;;;;;7.79;100.00;99617.75;4953330;28;10671;-68
2024/01/05 02:26:33;;;;;;;;;16.50;11.50;;;;;7.78;100.00;99614.25;4950234;28;10671;-67
2024/01/05 02:29:03;;;;;;;;;10.25;7.00;;;;;7.80;100.00;99614.03;4953770;28;11467;-67
2024/01/05 02:31:30;;;;;;;;;8.00;6.25;;;;;7.86;100.00;99610.53;4962689;28;10714;-67
2024/01/05 02:33:57;;;;;;;;;6.50;6.50;;;;;7.83;100.00;99609.09;4953928;28;10806;-67
2024/01/05 02:36:24;;;;;;;;;6.00;6.00;;;;;7.83;100.00;99595.69;4950699;28;10654;-68
2024/01/05 02:38:50;;;;;;;;;9.75;7.00;;;;;7.82;100.00;99602.09;4952485;28;10662;-67
2024/01/05 02:41:17;;;;;;;;;7.50;5.00;;;;;7.86;100.00;99600.66;4958259;28;10642;-69
2024/01/05 02:43:43;;;;;;;;;6.00;6.00;;;;;7.85;100.00;99596.31;4973724;28;10634;-68
2024/01/05 02:46:10;;;;;;;;;5.25;4.50;;;;;7.86;100.00;99603.34;4954970;28;10564;-67
2024/01/05 02:48:37;;;;;;;;;5.75;5.75;;;;;7.89;100.00;99597.53;4951877;28;10603;-68
2024/01/05 02:51:03;;;;;;;;;6.75;6.00;;;;;7.93;100.00;99592.59;4937158;28;11462;-69
2024/01/05 02:53:30;;;;;;;;;6.00;5.00;;;;;7.90;100.00;99585.81;4959209;28;10690;-68
2024/01/05 02:55:57;;;;;;;;;5.00;5.00;;;;;7.92;100.00;99583.72;4952326;28;10620;-67
2024/01/05 02:58:23;;;;;;;;;7.75;7.75;;;;;7.91;100.00;99582.09;4947380;28;10633;-70
2024/01/05 03:00:50;;;;;;;;;9.00;7.00;;;;;7.96;100.00;99580.66;4959807;28;10641;-68
2024/01/05 03:03:18;;;;;;;;;4.50;4.50;;;;;7.90;100.00;99576.94;4953427;28;10633;-68
2024/01/05 03:05:45;;;;;;;;;6.00;6.00;;;;;7.91;100.00;99566.00;4950013;28;10748;-68
2024/01/05 03:08:11;;;;;;;;;7.50;6.25;;;;;7.93;100.00;99563.94;4946324;28;10570;-70
2024/01/05 03:10:38;;;;;;;;;9.00;6.00;;;;;7.88;100.00;99563.75;4961122;28;10582;-68
2024/01/05 03:13:05;;;;;;;;;6.75;5.25;;;;;7.89;100.00;99565.38;4952982;28;10650;-67
2024/01/05 03:15:31;;;;;;;;;3.25;3.25;;;;;7.85;100.00;99555.28;4956319;28;10691;-68
2024/01/05 03:17:58;;;;;;;;;3.00;3.00;;;;;7.93;100.00;99555.06;4953648;28;10462;-68
2024/01/05 03:20:25;;;;;;;;;7.00;6.00;;;;;7.95;100.00;99547.66;4951875;28;10450;-67
2024/01/05 03:22:52;;;;;;;;;3.25;2.00;;;;;7.98;100.00;99541.03;4960113;28;10570;-69
2024/01/05 03:25:18;;;;;;;;;4.25;2.00;;;;;8.00;100.00;99539.00;4949123;28;10626;-68
2024/01/05 03:27:45;;;;;;;;;6.00;5.25;;;;;8.03;100.00;99535.91;4949698;28;10322;-68
2024/01/05 03:30:12;;;;;;;;;6.50;6.50;;;;;8.00;100.00;99523.75;4945539;28;10406;-68
2024/01/05 03:32:39;;;;;;;;;2.50;2.50;;;;;8.00;100.00;99522.91;4949317;28;10671;-69
2024/01/05 03:35:06;;;;;;;;;3.50;3.50;;;;;8.03;100.00;99522.50;4946263;28;10250;-70
2024/01/05 03:37:32;;;;;;;;;7.50;4.00;;;;;8.05;100.00;99518.56;4952058;28;10777;-70
2024/01/05 03:39:59;;;;;;;;;1.25;1.25;;;;;8.07;100.00;99505.78;4952172;28;11486;-68
2024/01/05 03:42:25;;;;;;;;;5.00;5.00;;;;;8.08;100.00;99512.78;4958127;28;10599;-69
2024/01/05 03:44:52;;;;;;;;;2.00;2.00;;;;;8.09;100.00;99506.38;4951889;28;10488;-67
2024/01/05 03:47:19;;;;;;;;;1.75;1.75;;;;;8.11;100.00;99503.53;4952893;28;10434;-70
2024/01/05 03:49:45;;;;;;;;;2.00;2.00;;;;;8.07;100.00;99494.25;4953199;28;10316;-68
2024/01/05 03:52:12;;;;;;;;;5.00;3.00;;;;;7.97;100.00;99499.22;4952988;28;10399;-68
2024/01/05 03:54:38;;;;;;;;;2.00;2.00;;;;;8.03;100.00;99496.53;4946887;28;10542;-67
2024/01/05 03:57:05;;;;;;;;;1.75;1.50;;;;;8.09;100.00;99486.81;4954857;28;10528;-68
2024/01/05 03:59:32;;;;;;;;;4.00;1.75;;;;;8.05;100.00;99477.53;4964323;28;10413;-68
2024/01/05 04:01:59;;;;;;;;;2.00;2.00;;;;;8.10;100.00;99475.06;4970911;28;10542;-68
2024/01/05 04:04:25;;;;;;;;;3.50;2.00;;;;;8.12;100.00;99464.94;4958179;28;10454;-70
2024/01/05 04:06:52;;;;;;;;;5.25;2.00;;;;;8.13;100.00;99461.22;4951933;28;10392;-68
2024/01/05 04:09:19;;;;;;;;;3.00;1.75;;;;;8.14;100.00;99454.81;4950458;28;10530;-69
2024/01/05 04:11:45;;;;;;;;;5.00;3.00;;;;;8.16;100.00;99447.41;4959672;28;10463;-68
2024/01/05 04:14:12;;;;;;;;;2.00;2.00;;;;;8.13;100.00;99445.16;4956552;28;10451;-68
2024/01/05 04:16:39;;;;;;;;;2.25;2.25;;;;;8.11;100.00;99439.19;4959907;28;10376;-67
2024/01/05 04:19:06;;;;;;;;;5.75;3.00;;;;;8.15;100.00;99443.91;4951512;28;10569;-69
2024/01/05 04:21:32;;;;;;;;;2.00;1.00;;;;;8.17;100.00;99439.16;4949902;28;10518;-67
2024/01/05 04:23:59;;;;;;;;;1.50;1.50;;;;;8.15;100.00;99432.38;4952731;28;11144;-68
2024/01/05 04:26:26;;;;;;;;;3.75;2.50;;;;;8.17;100.00;99443.69;4951098;28;10319;-69
2024/01/05 04:28:53;;;;;;;;;2.25;2.25;;;;;8.16;100.00;99436.69;4951044;28;10402;-68
2024/01/05 04:31:19;;;;;;;;;3.00;3.00;;;;;8.17;100.00;99432.97;4952451;28;10228;-68
2024/01/05 04:33:46;;;;;;;;;0.50;0.50;;;;;8.18;100.00;99430.09;4952643;28;11208;-69
2024/01/05 04:36:15;;;;;;;;;2.00;2.00;;;;;8.11;100.00;99425.78;4959251;28;10405;-68
2024/01/05 04:38:43;;;;;;;;;5.00;2.00;;;;;8.12;100.00;99416.72;4962907;28;10323;-68
2024/01/05 04:41:11;;;;;;;;;2.00;1.00;;;;;8.18;100.00;99418.53;4949390;28;10418;-67
2024/01/05 04:43:38;;;;;;;;;3.00;2.00;;;;;8.21;100.00;99414.59;4954621;28;10237;-66
2024/01/05 04:46:05;;;;;;;;;2.75;1.50;;;;;8.21;100.00;99406.56;4951264;28;10355;-70
2024/01/05 04:48:32;;;;;;;;;2.00;2.00;;;;;8.19;100.00;99406.78;4951111;28;10319;-66
2024/01/05 04:51:00;;;;;;;;;1.00;1.00;;;;;8.21;100.00;99399.34;4952443;28;10972;-67
2024/01/05 04:53:26;;;;;;;;;2.75;2.75;;;;;8.18;100.00;99397.06;4952053;28;10257;-65
2024/01/05 04:55:53;;;;;;;;;1.00;1.00;;;;;8.18;100.00;99394.41;4942794;28;10398;-70
2024/01/05 04:58:20;;;;;;;;;1.25;1.25;;;;;8.16;100.00;99385.75;4951658;28;10138;-69
2024/01/05 05:00:47;;;;;;;;;2.50;2.00;;;;;8.17;100.00;99388.22;4949153;28;10177;-69
2024/01/05 05:03:13;;;;;;;;;4.00;1.75;;;;;8.13;100.00;99376.28;4955033;28;10312;-69
2024/01/05 05:05:40;;;;;;;;;2.25;1.00;;;;;8.15;100.00;99376.91;4963561;28;10287;-68
2024/01/05 05:08:13;;;;;;;;;2.00;1.00;;;;;8.15;100.00;99384.94;4971446;28;10155;-70
2024/01/05 05:10:40;;;;;;;;;1.00;1.00;;;;;8.13;100.00;99386.19;4956648;28;10176;-71
2024/01/05 05:13:06;;;;;;;;;1.00;1.00;;;;;8.16;100.00;99385.75;4947947;28;10195;-67
2024/01/05 05:15:33;;;;;;;;;1.50;1.50;;;;;8.21;100.00;99388.63;4941324;28;10328;-69
2024/01/05 05:18:00;;;;;;;;;2.00;1.00;;;;;8.24;100.00;99384.69;4954606;28;10228;-68
2024/01/05 05:20:26;;;;;;;;;0.75;0.00;;;;;8.23;100.00;99375.03;4952291;29;10878;-68
2024/01/05 05:22:53;;;;;;;;;3.50;1.50;;;;;8.22;100.00;99378.72;4951700;28;10219;-69
2024/01/05 05:25:20;;;;;;;;;0.50;0.50;;;;;8.21;100.00;99377.91;4949797;28;10269;-73
2024/01/05 05:27:46;;;;;;;;;1.25;1.25;;;;;8.23;100.00;99377.69;4948052;28;10181;-69
2024/01/05 05:30:13;;;;;;;;;2.00;1.75;;;;;8.21;100.00;99374.41;4943595;28;10322;-67
2024/01/05 05:32:40;;;;;;;;;2.25;1.00;;;;;8.17;100.00;99382.03;4950739;28;10352;-71
2024/01/05 05:35:07;;;;;;;;;1.50;1.50;;;;;8.18;100.00;99375.63;4952054;28;10275;-68
2024/01/05 05:37:33;;;;;;;;;3.00;2.00;;;;;8.12;100.00;99371.97;4951127;28;11122;-67
2024/01/05 05:40:00;;;;;;;;;2.00;2.00;;;;;8.10;100.00;99371.38;4967708;28;10365;-70
2024/01/05 05:42:27;;;;;;;;;0.00;0.00;;;;;8.16;100.00;99373.19;4947148;28;11237;-68
2024/01/05 05:44:54;;;;;;;;;1.75;1.00;;;;;8.12;100.00;99374.66;4942213;28;11127;-68
2024/01/05 05:47:20;;;;;;;;;2.00;1.00;;;;;8.14;100.00;99377.09;4959705;28;10447;-70
2024/01/05 05:49:47;;;;;;;;;0.00;0.00;;;;;8.14;100.00;99367.22;4954900;28;10462;-69
2024/01/05 05:52:14;;;;;;;;;1.00;1.00;;;;;8.15;100.00;99368.03;4957133;28;10457;-68
2024/01/05 05:54:41;;;;;;;;;1.25;1.00;;;;;8.10;100.00;99374.06;4966682;28;10233;-69
2024/01/05 05:57:09;;;;;;;;;1.50;1.50;;;;;8.13;100.00;99372.78;4958715;28;10234;-68
2024/01/05 05:59:35;;;;;;;;;2.00;0.50;;;;;8.11;100.00;99364.16;4952226;28;10252;-66
2024/01/05 06:02:02;;;;;;;;;3.00;2.00;;;;;8.12;100.00;99366.59;4951912;28;10307;-68
2024/01/05 06:04:29;;;;;;;;;2.00;2.00;;;;;8.17;100.00;99371.31;4953970;28;10245;-67
2024/01/05 06:06:56;;;;;;;;;0.00;0.00;;;;;8.16;100.00;99369.69;4954379;28;10201;-67
2024/01/05 06:09:24;;;;;;;;;2.00;0.75;;;;;8.15;100.00;99371.53;4962279;28;10260;-66
2024/01/05 06:11:50;;;;;;;;;1.50;1.50;;;;;8.13;100.00;99362.88;4953747;28;10451;-68
2024/01/05 06:14:17;;;;;;;;;2.75;1.00;;;;;8.12;100.00;99374.66;4954732;28;10320;-70
2024/01/05 06:16:43;;;;;;;;;2.00;2.00;;;;;8.12;100.00;99371.97;4955026;28;10373;-69
2024/01/05 06:19:10;;;;;;;;;1.00;0.00;;;;;8.14;100.00;99379.78;4953908;28;10374;-69
2024/01/05 06:21:37;;;;;;;;;1.00;1.00;;;;;8.13;100.00;99394.22;4953447;28;10221;-67
2024/01/05 06:24:04;;;;;;;;;1.50;1.50;;;;;8.12;100.00;99385.38;4953895;28;10320;-70
2024/01/05 06:26:31;;;;;;;;;1.00;0.00;;;;;8.01;100.00;99386.03;4953274;28;10979;-66
2024/01/05 06:28:57;;;;;;;;;0.00;0.00;;;;;7.99;100.00;99381.94;4952884;28;10232;-67
2024/01/05 06:31:24;;;;;;;;;0.00;0.00;;;;;7.99;99.90;99372.03;4947035;28;10063;-68
2024/01/05 06:33:51;;;;;;;;;0.00;0.00;;;;;8.03;100.00;99377.81;4937400;28;10161;-67
2024/01/05 06:36:18;;;;;;;;;1.00;0.00;;;;;8.05;99.59;99381.06;4954684;28;10156;-66
2024/01/05 06:38:44;;;;;;;;;0.00;0.00;;;;;8.04;99.47;99374.06;4951902;28;10274;-67
2024/01/05 06:41:11;;;;;;;;;0.00;0.00;;;;;8.08;99.44;99372.63;4961497;28;10242;-66
2024/01/05 06:43:37;;;;;;;;;0.00;0.00;;;;;8.13;99.42;99362.06;4953906;28;10216;-66
2024/01/05 06:46:04;;;;;;;;;2.00;0.00;;;;;8.16;99.10;99364.31;4962464;28;10235;-68
2024/01/05 06:48:31;;;;;;;;;1.00;1.00;;;;;8.10;98.41;99374.06;4952114;28;10200;-66
2024/01/05 06:50:59;;;;;;;;;0.00;0.00;;;;;8.05;98.66;99365.81;4961759;28;10178;-69
2024/01/05 06:53:28;;;;;;;;;0.00;0.00;;;;;7.98;98.32;99364.19;4958548;28;10442;-67
2024/01/05 06:55:55;;;;;;;;;0.00;0.00;;;;;7.84;98.88;99361.59;4965377;28;10128;-68
2024/01/05 06:58:23;;;;;;;;;0.00;0.00;;;;;7.74;98.58;99369.28;4952588;28;10272;-67
2024/01/05 07:00:50;;;;;;;;;0.00;0.00;;;;;7.77;97.43;99365.31;4970415;28;10328;-68
2024/01/05 07:03:17;;;;;;;;;0.00;0.00;;;;;7.76;97.44;99367.19;4952659;28;10232;-68
2024/01/05 07:05:44;;;;;;;;;0.00;0.00;;;;;7.81;96.37;99361.19;4951926;28;10418;-67
2024/01/05 07:08:10;;;;;;;;;0.00;0.00;;;;;7.76;95.96;99356.47;4957923;28;10206;-67
2024/01/05 07:10:37;;;;;;;;;0.00;0.00;;;;;7.76;95.82;99351.13;4951072;28;10186;-67
2024/01/05 07:13:07;;;;;;;;;0.00;0.00;;;;;7.72;95.81;99360.59;4952378;28;10972;-66
2024/01/05 07:15:33;;;;;;;;;0.00;0.00;;;;;7.68;95.42;99356.72;4953655;28;10320;-69
2024/01/05 07:18:00;;;;;;;;;0.00;0.00;;;;;7.72;95.19;99362.47;4954325;28;10214;-68
2024/01/05 07:20:27;;;;;;;;;0.00;0.00;;;;;7.78;94.84;99364.28;4954260;28;10175;-69
2024/01/05 07:22:53;;;;;;;;;0.00;0.00;;;;;7.74;94.35;99376.44;4948724;28;10214;-68
2024/01/05 07:25:20;;;;;;;;;2.00;0.00;;;;;7.76;94.23;99369.88;4949244;28;10293;-68
2024/01/05 07:27:46;;;;;;;;;0.00;0.00;;;;;7.74;94.30;99374.63;4952638;28;10263;-67
2024/01/05 07:30:13;;;;;;;;;0.00;0.00;;;;;7.78;94.50;99383.03;4952890;28;10392;-72
2024/01/05 07:32:40;;;;;;;;;0.00;0.00;;;;;7.80;94.33;99376.44;4950758;28;10228;-67
2024/01/05 07:35:07;;;;;;;;;0.00;0.00;;;;;7.86;94.69;99370.25;4951542;28;10404;-68
2024/01/05 07:37:33;;;;;;;;;0.00;0.00;;;;;7.87;94.07;99384.47;4952061;28;10342;-70
2024/01/05 07:40:00;;;;;;;;;0.25;0.00;;;;;7.75;93.85;99378.94;4953232;28;10455;-68
2024/01/05 07:42:27;;;;;;;;;0.00;0.00;;;;;7.79;94.67;99380.16;4951169;28;10127;-67
2024/01/05 07:44:57;;;;;;;;;0.00;0.00;;;;;7.75;94.18;99384.31;4950450;28;10450;-68
2024/01/05 07:47:24;;;;;;;;;0.00;0.00;;;;;7.76;94.41;99377.91;4948300;28;10393;-68
2024/01/05 07:49:50;;;;;;;;;0.00;0.00;;;;;7.65;94.90;99381.22;4951697;28;10454;-69
2024/01/05 07:52:17;;;;;;;;;0.00;0.00;;;;;7.52;95.17;99383.94;4951702;28;11036;-69
2024/01/05 07:54:44;;;;;;;;;0.00;0.00;;;;;7.45;95.06;99381.28;4951351;28;11197;-69
2024/01/05 07:57:10;;;;;;;;;0.00;0.00;;;;;7.51;94.91;99379.63;4950437;28;10403;-69
2024/01/05 07:59:37;;;;;;;;;0.00;0.00;;;;;7.54;94.57;99368.50;4956867;28;10672;-69
2024/01/05 08:02:04;;;;;;;;;0.00;0.00;;;;;7.54;95.60;99368.50;4954691;28;11152;-69
2024/01/05 08:04:30;;;;;;;;;0.25;0.25;;;;;7.49;94.78;99381.69;4953308;28;10385;-69
2024/01/05 08:06:57;;;;;;;;;0.00;0.00;;;;;7.47;95.16;99376.56;4952776;28;10481;-69
2024/01/05 08:09:23;;;;;;;;;0.00;0.00;;;;;7.50;95.35;99378.00;4951978;28;10383;-69
2024/01/05 08:11:50;;;;;;;;;0.00;0.00;;;;;7.51;95.66;99368.94;4952347;28;10599;-69
2024/01/05 08:14:17;;;;;;;;;1.50;1.00;;;;;7.36;95.44;99372.66;4959489;28;10536;-69
2024/01/05 08:16:43;;;;;;;;;0.00;0.00;;;;;7.44;94.96;99377.78;4951873;28;10456;-69
2024/01/05 08:19:10;;;;;;;;;0.00;0.00;;;;;7.43;95.23;99378.00;4949789;28;10460;-69
2024/01/05 08:21:37;;;;;;;;;0.00;0.00;;;;;7.40;95.21;99371.19;4952542;28;10471;-69
2024/01/05 08:24:04;;;;;;;;;0.00;0.00;;;;;7.36;95.36;99374.50;4952488;28;10499;-69
2024/01/05 08:26:31;;;;;;;;;0.00;0.00;;;;;7.33;95.50;99374.94;4952710;28;10429;-69
2024/01/05 08:28:57;;;;;;;;;0.00;0.00;;;;;7.38;95.46;99372.47;4948707;28;10312;-69
2024/01/05 08:31:24;;;;;;;;;1.00;1.00;;;;;7.36;95.09;99377.19;4951518;28;10447;-69
2024/01/05 08:33:51;;;;;;;;;0.75;0.75;;;;;7.34;95.57;99381.94;4951407;28;10581;-68
2024/01/05 08:36:17;;;;;;;;;0.25;0.25;;;;;7.41;95.95;99374.69;4951303;28;10381;-68
2024/01/05 08:38:45;;;;;;;;;0.00;0.00;;;;;7.34;95.91;99372.06;4952082;28;10543;-71
2024/01/05 08:41:12;;;;;;;;;1.00;1.00;;;;;7.38;95.70;99377.81;4951943;28;10553;-68
2024/01/05 08:43:41;;;;;;;;;1.00;1.00;;;;;7.36;96.16;99363.81;4946948;28;10337;-69
2024/01/05 08:46:08;;;;;;;;;2.00;2.00;;;;;7.32;96.24;99371.44;4948398;28;10618;-69
2024/01/05 08:48:34;;;;;;;;;0.00;0.00;;;;;7.35;96.71;99365.66;4954643;28;10543;-68
2024/01/05 08:51:01;;;;;;;;;1.00;1.00;;;;;7.36;96.20;99367.31;4949921;28;10521;-68
2024/01/05 08:53:28;;;;;;;;;0.75;0.75;;;;;7.27;96.50;99373.91;4950657;28;10620;-68
2024/01/05 08:55:54;;;;;;;;;0.00;0.00;;;;;7.34;96.49;99368.56;4950118;28;10518;-68
2024/01/05 08:58:21;;;;;;;;;0.75;0.00;;;;;7.34;96.22;99368.56;4946665;28;10622;-69
2024/01/05 09:00:47;;;;;;;;;1.00;1.00;;;;;7.27;97.13;99373.91;4948844;28;11326;-68
2024/01/05 09:03:14;;;;;;;;;0.00;0.00;;;;;7.27;96.86;99363.22;4950554;28;10585;-68
2024/01/05 09:05:41;;;;;;;;;0.00;0.00;;;;;7.25;96.74;99367.97;4965494;28;10598;-68
2024/01/05 09:08:08;;;;;;;;;0.25;0.25;;;;;7.19;97.52;99368.78;4960703;28;10546;-68
2024/01/05 09:10:34;;;;;;;;;0.00;0.00;;;;;7.19;98.20;99374.97;4949596;28;10627;-68
2024/01/05 09:13:01;;;;;;;;;1.00;1.00;;;;;7.14;97.87;99374.75;4954465;28;10464;-68
2024/01/05 09:15:28;;;;;;;;;1.75;1.00;;;;;7.09;98.39;99371.03;4951271;28;10595;-68
2024/01/05 09:17:54;;;;;;;;;0.00;0.00;;;;;7.16;98.63;99374.53;4943489;28;10536;-68
2024/01/05 09:20:21;;;;;;;;;0.75;0.75;;;;;7.18;98.68;99367.16;4951024;28;10520;-67
2024/01/05 09:22:48;;;;;;;;;1.00;1.00;;;;;7.13;98.99;99377.63;4949800;28;10520;-67
2024/01/05 09:25:15;;;;;;;;;0.00;0.00;;;;;7.18;98.85;99375.19;4954365;28;10527;-68
2024/01/05 09:27:41;;;;;;;;;0.00;0.00;;;;;7.17;98.76;99377.03;4952714;28;10655;-68
2024/01/05 09:30:08;;;;;;;;;0.00;0.00;;;;;7.10;98.63;99381.56;4953674;28;10394;-67
2024/01/05 09:32:35;;;;;;;;;1.00;0.25;;;;;7.07;98.88;99384.66;4955510;28;10560;-67
2024/01/05 09:35:03;;;;;;;;;0.50;0.25;;;;;7.06;99.55;99377.66;4954554;28;10372;-67
2024/01/05 09:37:29;;;;;;;;;0.50;0.50;;;;;7.08;99.49;99386.28;4965648;28;10501;-67
2024/01/05 09:39:56;;;;;;;;;0.75;0.75;;;;;7.11;99.85;99390.41;4973691;28;10607;-67
2024/01/05 09:42:23;;;;;;;;;1.00;1.00;;;;;7.15;100.00;99394.31;4957248;28;11142;-68
2024/01/05 09:44:51;;;;;;;;;0.25;0.25;;;;;7.11;99.37;99388.56;4950019;28;10560;-67
2024/01/05 09:47:19;;;;;;;;;0.00;0.00;;;;;7.07;99.50;99390.00;4959651;28;10508;-67
2024/01/05 09:49:49;;;;;;;;;1.50;0.75;;;;;7.03;100.00;99393.28;4974391;28;10545;-68
2024/01/05 09:52:20;;;;;;;;;1.00;0.75;;;;;7.00;100.00;99389.16;4971638;28;10483;-68
2024/01/05 09:54:46;;;;;;;;;0.50;0.50;;;;;7.06;100.00;99390.22;4963349;28;10695;-67
2024/01/05 09:57:17;;;;;;;;;1.00;1.00;;;;;7.07;100.00;99378.47;4963703;28;10544;-68
2024/01/05 09:59:46;;;;;;;;;1.50;0.75;;;;;7.14;100.00;99385.47;4951491;28;10598;-68
2024/01/05 10:02:20;;;;;;;;;0.00;0.00;;;;;7.22;100.00;99392.47;4949270;28;10535;-67
2024/01/05 10:04:47;;;;;;;;;1.00;1.00;;;;;7.16;100.00;99383.38;4953105;28;10470;-67
2024/01/05 10:07:15;;;;;;;;;1.00;1.00;;;;;7.17;100.00;99389.56;4955147;28;10542;-68
2024/01/05 10:09:53;;;;;;;;;1.00;1.00;;;;;7.11;100.00;99390.41;4957816;28;10518;-68
2024/01/05 10:12:20;;;;;;;;;1.25;1.25;;;;;7.08;100.00;99382.78;4960557;28;10666;-68
2024/01/05 10:14:47;;;;;;;;;0.00;0.00;;;;;7.08;100.00;99382.78;4957751;28;10629;-67
2024/01/05 10:17:15;;;;;;;;;0.00;0.00;;;;;7.11;100.00;99385.06;4954807;28;10636;-68
2024/01/05 10:19:42;;;;;;;;;2.00;2.00;;;;;7.09;100.00;99381.75;4953677;28;10631;-68
2024/01/05 10:22:11;;;;;;;;;2.25;2.25;;;;;7.07;100.00;99375.81;4962579;28;10780;-68
2024/01/05 10:24:39;;;;;;;;;2.00;2.00;;;;;7.08;100.00;99377.44;4964880;28;10738;-68
2024/01/05 10:27:08;;;;;;;;;2.00;2.00;;;;;7.11;100.00;99380.53;4962167;28;10678;-67
2024/01/05 10:29:37;;;;;;;;;1.50;1.00;;;;;7.11;100.00;99366.31;4954508;28;10890;-67
2024/01/05 10:32:14;;;;;;;;;2.00;2.00;;;;;7.04;100.00;99376.22;4950097;28;10679;-67
2024/01/05 10:34:44;;;;;;;;;3.00;2.50;;;;;6.92;100.00;99379.50;4949668;28;10764;-67
2024/01/05 10:37:12;;;;;;;;;4.75;4.75;;;;;6.98;100.00;99374.38;4952725;28;10684;-67
2024/01/05 10:39:44;;;;;;;;;6.25;4.00;;;;;7.02;100.00;99370.25;4952235;28;10756;-68
2024/01/05 10:42:28;;;;;;;;;3.00;3.00;;;;;6.99;100.00;99366.13;4949187;28;10771;-67
2024/01/05 10:44:58;;;;;;;;;2.50;2.50;;;;;7.04;100.00;99368.19;4949170;28;10718;-67
2024/01/05 10:47:29;;;;;;;;;2.00;2.00;;;;;7.11;100.00;99359.13;4952335;28;10754;-68
2024/01/05 10:49:56;;;;;;;;;1.75;1.75;;;;;7.21;100.00;99365.88;4952841;28;11652;-68
2024/01/05 10:52:27;;;;;;;;;5.75;5.75;;;;;7.22;100.00;99363.03;4956615;28;10704;-68
2024/01/05 10:54:54;;;;;;;;;7.50;7.50;;;;;7.23;100.00;99363.84;4948743;28;10846;-68
2024/01/05 10:57:23;;;;;;;;;6.00;6.00;;;;;7.27;100.00;99363.22;4950559;28;10878;-67
2024/01/05 10:59:55;;;;;;;;;7.25;7.25;;;;;7.22;99.99;99359.53;4948921;28;10889;-68
2024/01/05 11:02:29;;;;;;;;;5.00;5.00;;;;;7.22;100.00;99359.53;4955324;28;10772;-68
2024/01/05 11:05:11;;;;;;;;;9.50;7.00;;;;;7.25;100.00;99361.75;4950334;28;10792;-68
2024/01/05 11:07:41;;;;;;;;;10.25;9.00;;;;;7.22;100.00;99355.00;4952969;28;10856;-69
2024/01/05 11:10:48;;;;;;;;;6.50;5.00;;;;;7.30;100.00;99359.31;4953323;28;11074;-68
2024/01/05 11:14:09;;;;;;;;;4.00;4.00;;;;;7.28;99.43;99356.00;4954244;28;11097;-66
2024/01/05 11:16:54;;;;;;;;;9.50;7.25;;;;;7.23;99.28;99351.28;4914319;29;10873;-66
2024/01/05 11:19:49;;;;;;;;;7.00;7.00;;;;;7.22;100.00;99354.19;4949282;28;11135;-67
2024/01/05 11:22:24;;;;;;;;;9.50;9.25;;;;;7.30;100.00;99352.09;4946376;28;10957;-66
2024/01/05 11:24:51;;;;;;;;;9.25;9.25;;;;;7.35;100.00;99340.75;4952341;28;10856;-67
2024/01/05 11:27:34;;;;;;;;;7.00;6.25;;;;;7.35;99.99;99346.09;4956158;28;10831;-67
2024/01/05 11:30:02;;;;;;;;;9.00;8.25;;;;;7.39;100.00;99345.47;4958802;28;10916;-69
2024/01/05 11:32:45;;;;;;;;;7.00;7.00;;;;;7.37;99.69;99341.34;4954939;28;10839;-66
2024/01/05 11:35:15;;;;;;;;;8.50;6.50;;;;;7.34;99.77;99342.63;4950666;28;11704;-69
2024/01/05 11:37:43;;;;;;;;;7.50;7.50;;;;;7.31;100.00;99335.00;4954118;28;10875;-68